sensor_id;sensor_type;location;lat;lon;timestamp;temperature;humidity
21612;DHT22;47005;52.292;13.452;2024-01-30T00:01:15;4.70;97.10
21612;DHT22;47005;52.292;13.452;2024-01-30T00:03:41;4.70;97.10
21612;DHT22;47005;52.292;13.452;2024-01-30T00:06:08;4.70;97.20
21612;DHT22;47005;52.292;13.452;2024-01-30T00:08:33;4.70;97.20
21612;DHT22;47005;52.292;13.452;2024-01-30T00:10:59;4.70;97.30
21612;DHT22;47005;52.292;13.452;2024-01-30T00:13:25;4.70;97.30
21612;DHT22;47005;52.292;13.452;2024-01-30T00:15:50;4.70;97.20
21612;DHT22;47005;52.292;13.452;2024-01-30T00:18:16;4.60;97.20
21612;DHT22;47005;52.292;13.452;2024-01-30T00:20:41;4.60;97.30
21612;DHT22;47005;52.292;13.452;2024-01-30T00:23:08;4.60;97.20
21612;DHT22;47005;52.292;13.452;2024-01-30T00:25:34;4.60;97.30
21612;DHT22;47005;52.292;13.452;2024-01-30T00:28:00;4.60;97.30
21612;DHT22;47005;52.292;13.452;2024-01-30T00:30:25;4.60;97.30
21612;DHT22;47005;52.292;13.452;2024-01-30T00:32:51;4.60;97.30
21612;DHT22;47005;52.292;13.452;2024-01-30T00:35:17;4.60;97.30
21612;DHT22;47005;52.292;13.452;2024-01-30T00:37:42;4.70;97.20
21612;DHT22;47005;52.292;13.452;2024-01-30T00:40:08;4.60;97.20
21612;DHT22;47005;52.292;13.452;2024-01-30T00:42:41;4.60;97.20
21612;DHT22;47005;52.292;13.452;2024-01-30T00:45:14;4.60;97.20
21612;DHT22;47005;52.292;13.452;2024-01-30T00:47:40;4.60;97.20
21612;DHT22;47005;52.292;13.452;2024-01-30T00:50:06;4.60;97.20
21612;DHT22;47005;52.292;13.452;2024-01-30T00:52:32;4.60;97.20
21612;DHT22;47005;52.292;13.452;2024-01-30T00:54:58;4.60;97.20
21612;DHT22;47005;52.292;13.452;2024-01-30T00:57:24;4.60;97.20
21612;DHT22;47005;52.292;13.452;2024-01-30T00:59:50;4.60;97.10
21612;DHT22;47005;52.292;13.452;2024-01-30T01:02:16;4.50;97.10
21612;DHT22;47005;52.292;13.452;2024-01-30T01:04:43;4.50;97.10
21612;DHT22;47005;52.292;13.452;2024-01-30T01:07:10;4.50;97.10
21612;DHT22;47005;52.292;13.452;2024-01-30T01:09:35;4.50;97.10
21612;DHT22;47005;52.292;13.452;2024-01-30T01:12:02;4.50;97.10
21612;DHT22;47005;52.292;13.452;2024-01-30T01:14:27;4.50;97.10
21612;DHT22;47005;52.292;13.452;2024-01-30T01:16:53;4.50;97.10
21612;DHT22;47005;52.292;13.452;2024-01-30T01:19:19;4.50;97.10
21612;DHT22;47005;52.292;13.452;2024-01-30T01:21:44;4.50;97.10
21612;DHT22;47005;52.292;13.452;2024-01-30T01:24:10;4.40;97.10
21612;DHT22;47005;52.292;13.452;2024-01-30T01:26:36;4.40;97.10
21612;DHT22;47005;52.292;13.452;2024-01-30T01:29:01;4.40;97.10
21612;DHT22;47005;52.292;13.452;2024-01-30T01:31:29;4.40;97.20
21612;DHT22;47005;52.292;13.452;2024-01-30T01:33:55;4.40;97.10
21612;DHT22;47005;52.292;13.452;2024-01-30T01:36:21;4.40;97.20
21612;DHT22;47005;52.292;13.452;2024-01-30T01:38:46;4.40;97.20
21612;DHT22;47005;52.292;13.452;2024-01-30T01:41:12;4.40;97.20
21612;DHT22;47005;52.292;13.452;2024-01-30T01:43:38;4.30;97.30
21612;DHT22;47005;52.292;13.452;2024-01-30T01:46:05;4.40;97.30
21612;DHT22;47005;52.292;13.452;2024-01-30T01:48:32;4.30;97.30
21612;DHT22;47005;52.292;13.452;2024-01-30T01:50:58;4.30;97.30
21612;DHT22;47005;52.292;13.452;2024-01-30T01:53:24;4.30;97.30
21612;DHT22;47005;52.292;13.452;2024-01-30T01:55:50;4.30;97.20
21612;DHT22;47005;52.292;13.452;2024-01-30T01:58:19;4.30;97.20
21612;DHT22;47005;52.292;13.452;2024-01-30T02:00:46;4.30;97.30
21612;DHT22;47005;52.292;13.452;2024-01-30T02:03:13;4.30;97.30
21612;DHT22;47005;52.292;13.452;2024-01-30T02:05:41;4.30;97.30
21612;DHT22;47005;52.292;13.452;2024-01-30T02:08:11;4.30;97.30
21612;DHT22;47005;52.292;13.452;2024-01-30T02:10:37;4.30;97.30
21612;DHT22;47005;52.292;13.452;2024-01-30T02:13:03;4.30;97.30
21612;DHT22;47005;52.292;13.452;2024-01-30T02:15:28;4.30;97.30
21612;DHT22;47005;52.292;13.452;2024-01-30T02:17:54;4.30;97.40
21612;DHT22;47005;52.292;13.452;2024-01-30T02:20:21;4.30;97.40
21612;DHT22;47005;52.292;13.452;2024-01-30T02:22:48;4.30;97.40
21612;DHT22;47005;52.292;13.452;2024-01-30T02:25:14;4.30;97.40
21612;DHT22;47005;52.292;13.452;2024-01-30T02:27:39;4.20;97.30
21612;DHT22;47005;52.292;13.452;2024-01-30T02:30:06;4.20;97.40
21612;DHT22;47005;52.292;13.452;2024-01-30T02:32:31;4.20;97.30
21612;DHT22;47005;52.292;13.452;2024-01-30T02:34:57;4.20;97.40
21612;DHT22;47005;52.292;13.452;2024-01-30T02:37:22;4.20;97.40
21612;DHT22;47005;52.292;13.452;2024-01-30T02:39:48;4.20;97.40
21612;DHT22;47005;52.292;13.452;2024-01-30T02:42:14;4.20;97.40
21612;DHT22;47005;52.292;13.452;2024-01-30T02:44:39;4.20;97.40
21612;DHT22;47005;52.292;13.452;2024-01-30T02:47:05;4.20;97.50
21612;DHT22;47005;52.292;13.452;2024-01-30T02:49:30;4.20;97.50
21612;DHT22;47005;52.292;13.452;2024-01-30T02:51:56;4.20;97.50
21612;DHT22;47005;52.292;13.452;2024-01-30T02:54:22;4.20;97.50
21612;DHT22;47005;52.292;13.452;2024-01-30T02:56:47;4.20;97.50
21612;DHT22;47005;52.292;13.452;2024-01-30T02:59:13;4.20;97.50
21612;DHT22;47005;52.292;13.452;2024-01-30T03:01:45;4.20;97.50
21612;DHT22;47005;52.292;13.452;2024-01-30T03:04:11;4.20;97.60
21612;DHT22;47005;52.292;13.452;2024-01-30T03:06:37;4.20;97.60
21612;DHT22;47005;52.292;13.452;2024-01-30T03:09:03;4.20;97.70
21612;DHT22;47005;52.292;13.452;2024-01-30T03:11:30;4.20;97.70
21612;DHT22;47005;52.292;13.452;2024-01-30T03:13:56;4.10;97.70
21612;DHT22;47005;52.292;13.452;2024-01-30T03:16:21;4.10;97.70
21612;DHT22;47005;52.292;13.452;2024-01-30T03:18:47;4.10;97.70
21612;DHT22;47005;52.292;13.452;2024-01-30T03:21:13;4.20;97.70
21612;DHT22;47005;52.292;13.452;2024-01-30T03:23:39;4.10;97.70
21612;DHT22;47005;52.292;13.452;2024-01-30T03:26:05;4.20;97.80
21612;DHT22;47005;52.292;13.452;2024-01-30T03:28:32;4.10;97.70
21612;DHT22;47005;52.292;13.452;2024-01-30T03:30:57;4.20;97.80
21612;DHT22;47005;52.292;13.452;2024-01-30T03:33:23;4.10;97.80
21612;DHT22;47005;52.292;13.452;2024-01-30T03:35:48;4.10;97.80
21612;DHT22;47005;52.292;13.452;2024-01-30T03:38:14;4.10;97.90
21612;DHT22;47005;52.292;13.452;2024-01-30T03:40:40;4.10;97.90
21612;DHT22;47005;52.292;13.452;2024-01-30T03:43:05;4.10;97.90
21612;DHT22;47005;52.292;13.452;2024-01-30T03:45:31;4.10;97.90
21612;DHT22;47005;52.292;13.452;2024-01-30T03:47:56;4.10;97.90
21612;DHT22;47005;52.292;13.452;2024-01-30T03:50:22;4.10;97.90
21612;DHT22;47005;52.292;13.452;2024-01-30T03:52:48;4.10;97.90
21612;DHT22;47005;52.292;13.452;2024-01-30T03:55:13;4.10;98.00
21612;DHT22;47005;52.292;13.452;2024-01-30T03:57:39;4.10;98.00
21612;DHT22;47005;52.292;13.452;2024-01-30T04:00:05;4.10;98.10
21612;DHT22;47005;52.292;13.452;2024-01-30T04:02:31;4.10;98.10
21612;DHT22;47005;52.292;13.452;2024-01-30T04:04:57;4.10;98.10
21612;DHT22;47005;52.292;13.452;2024-01-30T04:07:22;4.10;98.10
21612;DHT22;47005;52.292;13.452;2024-01-30T04:09:48;4.10;98.70
21612;DHT22;47005;52.292;13.452;2024-01-30T04:12:13;4.10;98.40
21612;DHT22;47005;52.292;13.452;2024-01-30T04:14:39;4.10;98.50
21612;DHT22;47005;52.292;13.452;2024-01-30T04:17:05;4.00;98.50
21612;DHT22;47005;52.292;13.452;2024-01-30T04:19:30;4.00;98.40
21612;DHT22;47005;52.292;13.452;2024-01-30T04:21:56;4.00;98.50
21612;DHT22;47005;52.292;13.452;2024-01-30T04:24:22;4.10;98.50
21612;DHT22;47005;52.292;13.452;2024-01-30T04:26:47;4.00;98.50
21612;DHT22;47005;52.292;13.452;2024-01-30T04:29:13;4.00;98.50
21612;DHT22;47005;52.292;13.452;2024-01-30T04:31:38;4.00;98.50
21612;DHT22;47005;52.292;13.452;2024-01-30T04:34:04;4.10;98.50
21612;DHT22;47005;52.292;13.452;2024-01-30T04:36:29;4.00;98.50
21612;DHT22;47005;52.292;13.452;2024-01-30T04:38:55;4.00;98.50
21612;DHT22;47005;52.292;13.452;2024-01-30T04:41:21;3.90;98.40
21612;DHT22;47005;52.292;13.452;2024-01-30T04:43:46;4.00;98.40
21612;DHT22;47005;52.292;13.452;2024-01-30T04:46:12;4.00;98.40
21612;DHT22;47005;52.292;13.452;2024-01-30T04:48:37;4.00;98.40
21612;DHT22;47005;52.292;13.452;2024-01-30T04:51:03;4.00;98.50
21612;DHT22;47005;52.292;13.452;2024-01-30T04:53:30;4.00;98.50
21612;DHT22;47005;52.292;13.452;2024-01-30T04:55:56;4.00;98.50
21612;DHT22;47005;52.292;13.452;2024-01-30T04:58:22;4.00;98.50
21612;DHT22;47005;52.292;13.452;2024-01-30T05:00:47;4.00;98.50
21612;DHT22;47005;52.292;13.452;2024-01-30T05:03:17;4.10;98.60
21612;DHT22;47005;52.292;13.452;2024-01-30T05:05:43;4.00;98.50
21612;DHT22;47005;52.292;13.452;2024-01-30T05:08:08;4.10;98.50
21612;DHT22;47005;52.292;13.452;2024-01-30T05:10:34;4.10;98.40
21612;DHT22;47005;52.292;13.452;2024-01-30T05:13:00;4.10;98.40
21612;DHT22;47005;52.292;13.452;2024-01-30T05:15:25;4.10;98.40
21612;DHT22;47005;52.292;13.452;2024-01-30T05:17:51;4.10;98.40
21612;DHT22;47005;52.292;13.452;2024-01-30T05:20:17;4.10;98.40
21612;DHT22;47005;52.292;13.452;2024-01-30T05:22:43;4.20;98.50
21612;DHT22;47005;52.292;13.452;2024-01-30T05:25:11;4.20;98.40
21612;DHT22;47005;52.292;13.452;2024-01-30T05:27:37;4.20;98.40
21612;DHT22;47005;52.292;13.452;2024-01-30T05:30:04;4.20;98.40
21612;DHT22;47005;52.292;13.452;2024-01-30T05:32:29;4.20;98.40
21612;DHT22;47005;52.292;13.452;2024-01-30T05:34:55;4.20;98.40
21612;DHT22;47005;52.292;13.452;2024-01-30T05:37:21;4.20;98.40
21612;DHT22;47005;52.292;13.452;2024-01-30T05:39:46;4.30;98.50
21612;DHT22;47005;52.292;13.452;2024-01-30T05:42:12;4.20;98.40
21612;DHT22;47005;52.292;13.452;2024-01-30T05:44:38;4.20;98.40
21612;DHT22;47005;52.292;13.452;2024-01-30T05:47:04;4.20;98.40
21612;DHT22;47005;52.292;13.452;2024-01-30T05:49:29;4.20;98.60
21612;DHT22;47005;52.292;13.452;2024-01-30T05:51:55;4.20;98.60
21612;DHT22;47005;52.292;13.452;2024-01-30T05:54:21;4.20;98.50
21612;DHT22;47005;52.292;13.452;2024-01-30T05:56:46;4.20;98.60
21612;DHT22;47005;52.292;13.452;2024-01-30T05:59:12;4.30;98.60
21612;DHT22;47005;52.292;13.452;2024-01-30T06:01:37;4.20;98.50
21612;DHT22;47005;52.292;13.452;2024-01-30T06:04:03;4.20;98.60
21612;DHT22;47005;52.292;13.452;2024-01-30T06:06:29;4.20;98.70
21612;DHT22;47005;52.292;13.452;2024-01-30T06:08:54;4.20;98.70
21612;DHT22;47005;52.292;13.452;2024-01-30T06:11:21;4.20;98.80
21612;DHT22;47005;52.292;13.452;2024-01-30T06:13:47;4.20;98.80
21612;DHT22;47005;52.292;13.452;2024-01-30T06:16:12;4.20;98.80
21612;DHT22;47005;52.292;13.452;2024-01-30T06:18:38;4.20;98.80
21612;DHT22;47005;52.292;13.452;2024-01-30T06:21:04;4.20;98.80
21612;DHT22;47005;52.292;13.452;2024-01-30T06:23:30;4.20;98.90
21612;DHT22;47005;52.292;13.452;2024-01-30T06:25:56;4.20;98.90
21612;DHT22;47005;52.292;13.452;2024-01-30T06:28:21;4.20;99.00
21612;DHT22;47005;52.292;13.452;2024-01-30T06:30:47;4.20;98.90
21612;DHT22;47005;52.292;13.452;2024-01-30T06:33:13;4.20;98.90
21612;DHT22;47005;52.292;13.452;2024-01-30T06:35:40;4.20;99.00
21612;DHT22;47005;52.292;13.452;2024-01-30T06:38:07;4.20;98.90
21612;DHT22;47005;52.292;13.452;2024-01-30T06:40:33;4.20;99.10
21612;DHT22;47005;52.292;13.452;2024-01-30T06:42:58;4.20;99.20
21612;DHT22;47005;52.292;13.452;2024-01-30T06:45:24;4.20;99.20
21612;DHT22;47005;52.292;13.452;2024-01-30T06:47:49;4.20;99.20
21612;DHT22;47005;52.292;13.452;2024-01-30T06:50:15;4.20;99.10
21612;DHT22;47005;52.292;13.452;2024-01-30T06:52:41;4.10;99.20
21612;DHT22;47005;52.292;13.452;2024-01-30T06:55:07;4.10;99.10
21612;DHT22;47005;52.292;13.452;2024-01-30T06:57:33;4.20;99.10
21612;DHT22;47005;52.292;13.452;2024-01-30T06:59:58;4.20;99.10
21612;DHT22;47005;52.292;13.452;2024-01-30T07:02:24;4.20;99.10
21612;DHT22;47005;52.292;13.452;2024-01-30T07:04:50;4.20;99.10
21612;DHT22;47005;52.292;13.452;2024-01-30T07:07:15;4.20;99.20
21612;DHT22;47005;52.292;13.452;2024-01-30T07:09:41;4.20;99.10
21612;DHT22;47005;52.292;13.452;2024-01-30T07:12:07;4.20;99.10
21612;DHT22;47005;52.292;13.452;2024-01-30T07:14:33;4.20;99.10
21612;DHT22;47005;52.292;13.452;2024-01-30T07:16:59;4.30;99.20
21612;DHT22;47005;52.292;13.452;2024-01-30T07:19:24;4.20;99.40
21612;DHT22;47005;52.292;13.452;2024-01-30T07:21:50;4.20;99.40
21612;DHT22;47005;52.292;13.452;2024-01-30T07:24:15;4.20;99.50
21612;DHT22;47005;52.292;13.452;2024-01-30T07:26:41;4.30;99.60
21612;DHT22;47005;52.292;13.452;2024-01-30T07:29:07;4.20;99.50
21612;DHT22;47005;52.292;13.452;2024-01-30T07:31:32;4.30;99.60
21612;DHT22;47005;52.292;13.452;2024-01-30T07:33:58;4.30;99.50
21612;DHT22;47005;52.292;13.452;2024-01-30T07:36:23;4.30;99.50
21612;DHT22;47005;52.292;13.452;2024-01-30T07:38:49;4.30;99.60
21612;DHT22;47005;52.292;13.452;2024-01-30T07:41:15;4.30;99.60
21612;DHT22;47005;52.292;13.452;2024-01-30T07:43:40;4.30;99.60
21612;DHT22;47005;52.292;13.452;2024-01-30T07:46:06;4.30;99.80
21612;DHT22;47005;52.292;13.452;2024-01-30T07:48:34;4.30;99.80
21612;DHT22;47005;52.292;13.452;2024-01-30T07:51:00;4.30;99.60
21612;DHT22;47005;52.292;13.452;2024-01-30T07:53:26;4.30;99.60
21612;DHT22;47005;52.292;13.452;2024-01-30T07:55:52;4.40;99.60
21612;DHT22;47005;52.292;13.452;2024-01-30T07:58:17;4.40;99.60
21612;DHT22;47005;52.292;13.452;2024-01-30T08:00:44;4.40;99.60
21612;DHT22;47005;52.292;13.452;2024-01-30T08:03:10;4.40;99.60
21612;DHT22;47005;52.292;13.452;2024-01-30T08:05:36;4.40;99.70
21612;DHT22;47005;52.292;13.452;2024-01-30T08:08:01;4.50;99.70
21612;DHT22;47005;52.292;13.452;2024-01-30T08:10:27;4.50;99.60
21612;DHT22;47005;52.292;13.452;2024-01-30T08:12:53;4.50;99.60
21612;DHT22;47005;52.292;13.452;2024-01-30T08:15:18;4.50;99.70
21612;DHT22;47005;52.292;13.452;2024-01-30T08:17:44;4.60;99.70
21612;DHT22;47005;52.292;13.452;2024-01-30T08:20:11;4.60;99.70
21612;DHT22;47005;52.292;13.452;2024-01-30T08:22:39;4.60;99.60
21612;DHT22;47005;52.292;13.452;2024-01-30T08:25:05;4.70;99.70
21612;DHT22;47005;52.292;13.452;2024-01-30T08:27:31;4.70;99.70
21612;DHT22;47005;52.292;13.452;2024-01-30T08:29:57;4.70;99.70
21612;DHT22;47005;52.292;13.452;2024-01-30T08:32:23;4.70;99.60
21612;DHT22;47005;52.292;13.452;2024-01-30T08:34:49;4.80;99.60
21612;DHT22;47005;52.292;13.452;2024-01-30T08:37:15;4.80;99.60
21612;DHT22;47005;52.292;13.452;2024-01-30T08:39:43;4.80;99.60
21612;DHT22;47005;52.292;13.452;2024-01-30T08:42:08;4.80;99.90
21612;DHT22;47005;52.292;13.452;2024-01-30T08:44:34;4.80;99.80
21612;DHT22;47005;52.292;13.452;2024-01-30T08:46:59;5.00;99.80
21612;DHT22;47005;52.292;13.452;2024-01-30T08:49:25;4.90;99.90
21612;DHT22;47005;52.292;13.452;2024-01-30T08:51:51;4.90;99.90
21612;DHT22;47005;52.292;13.452;2024-01-30T08:54:16;5.00;99.90
21612;DHT22;47005;52.292;13.452;2024-01-30T08:56:42;5.00;99.90
21612;DHT22;47005;52.292;13.452;2024-01-30T08:59:08;5.00;99.90
21612;DHT22;47005;52.292;13.452;2024-01-30T09:01:34;5.10;99.90
21612;DHT22;47005;52.292;13.452;2024-01-30T09:03:59;5.10;99.80
21612;DHT22;47005;52.292;13.452;2024-01-30T09:06:25;5.20;99.80
21612;DHT22;47005;52.292;13.452;2024-01-30T09:08:53;5.20;99.80
21612;DHT22;47005;52.292;13.452;2024-01-30T09:11:19;5.30;99.80
21612;DHT22;47005;52.292;13.452;2024-01-30T09:13:44;5.30;99.70
21612;DHT22;47005;52.292;13.452;2024-01-30T09:16:10;5.40;99.60
21612;DHT22;47005;52.292;13.452;2024-01-30T09:18:36;5.40;99.80
21612;DHT22;47005;52.292;13.452;2024-01-30T09:21:01;5.50;99.60
21612;DHT22;47005;52.292;13.452;2024-01-30T09:23:27;5.50;99.50
21612;DHT22;47005;52.292;13.452;2024-01-30T09:25:53;5.50;99.40
21612;DHT22;47005;52.292;13.452;2024-01-30T09:28:19;5.60;99.50
21612;DHT22;47005;52.292;13.452;2024-01-30T09:30:45;5.60;99.20
21612;DHT22;47005;52.292;13.452;2024-01-30T09:33:10;5.70;98.80
21612;DHT22;47005;52.292;13.452;2024-01-30T09:35:36;5.70;98.90
21612;DHT22;47005;52.292;13.452;2024-01-30T09:38:02;5.80;98.90
21612;DHT22;47005;52.292;13.452;2024-01-30T09:40:28;5.90;98.70
21612;DHT22;47005;52.292;13.452;2024-01-30T09:42:54;5.90;98.60
21612;DHT22;47005;52.292;13.452;2024-01-30T09:45:24;6.00;98.60
21612;DHT22;47005;52.292;13.452;2024-01-30T09:47:50;6.00;98.50
21612;DHT22;47005;52.292;13.452;2024-01-30T09:50:16;6.10;98.40
21612;DHT22;47005;52.292;13.452;2024-01-30T09:52:46;6.10;98.40
21612;DHT22;47005;52.292;13.452;2024-01-30T09:55:12;6.20;98.20
21612;DHT22;47005;52.292;13.452;2024-01-30T09:57:38;6.20;98.00
21612;DHT22;47005;52.292;13.452;2024-01-30T10:00:05;6.30;97.90
21612;DHT22;47005;52.292;13.452;2024-01-30T10:02:36;6.30;98.20
21612;DHT22;47005;52.292;13.452;2024-01-30T10:05:02;6.40;97.80
21612;DHT22;47005;52.292;13.452;2024-01-30T10:07:28;6.40;97.80
21612;DHT22;47005;52.292;13.452;2024-01-30T10:09:55;6.50;97.60
21612;DHT22;47005;52.292;13.452;2024-01-30T10:12:22;6.50;97.60
21612;DHT22;47005;52.292;13.452;2024-01-30T10:14:48;6.60;97.70
21612;DHT22;47005;52.292;13.452;2024-01-30T10:17:13;6.60;97.80
21612;DHT22;47005;52.292;13.452;2024-01-30T10:19:40;6.60;97.70
21612;DHT22;47005;52.292;13.452;2024-01-30T10:22:06;6.60;97.70
21612;DHT22;47005;52.292;13.452;2024-01-30T10:24:33;6.70;97.10
21612;DHT22;47005;52.292;13.452;2024-01-30T10:26:59;6.80;97.00
21612;DHT22;47005;52.292;13.452;2024-01-30T10:29:26;6.80;96.90
21612;DHT22;47005;52.292;13.452;2024-01-30T10:32:02;6.80;96.80
21612;DHT22;47005;52.292;13.452;2024-01-30T10:34:28;6.90;97.20
21612;DHT22;47005;52.292;13.452;2024-01-30T10:39:29;7.00;96.90
21612;DHT22;47005;52.292;13.452;2024-01-30T10:42:03;7.00;96.70
21612;DHT22;47005;52.292;13.452;2024-01-30T10:44:36;7.10;96.60
21612;DHT22;47005;52.292;13.452;2024-01-30T10:47:06;7.10;96.20
21612;DHT22;47005;52.292;13.452;2024-01-30T10:49:37;7.20;96.50
21612;DHT22;47005;52.292;13.452;2024-01-30T10:52:04;7.20;96.60
21612;DHT22;47005;52.292;13.452;2024-01-30T10:54:31;7.30;96.70
21612;DHT22;47005;52.292;13.452;2024-01-30T10:57:00;7.30;96.70
21612;DHT22;47005;52.292;13.452;2024-01-30T10:59:29;7.30;96.40
21612;DHT22;47005;52.292;13.452;2024-01-30T11:02:00;7.30;96.40
21612;DHT22;47005;52.292;13.452;2024-01-30T11:04:25;7.40;96.40
21612;DHT22;47005;52.292;13.452;2024-01-30T11:06:51;7.40;96.60
21612;DHT22;47005;52.292;13.452;2024-01-30T11:09:18;7.40;96.50
21612;DHT22;47005;52.292;13.452;2024-01-30T11:11:57;7.50;96.50
21612;DHT22;47005;52.292;13.452;2024-01-30T11:14:28;7.50;96.40
21612;DHT22;47005;52.292;13.452;2024-01-30T11:16:57;7.50;96.20
21612;DHT22;47005;52.292;13.452;2024-01-30T11:19:26;7.60;96.20
21612;DHT22;47005;52.292;13.452;2024-01-30T11:21:53;7.60;96.20
21612;DHT22;47005;52.292;13.452;2024-01-30T11:24:20;7.60;96.10
21612;DHT22;47005;52.292;13.452;2024-01-30T11:26:50;7.70;95.90
21612;DHT22;47005;52.292;13.452;2024-01-30T11:29:24;7.70;96.00
21612;DHT22;47005;52.292;13.452;2024-01-30T11:31:57;7.80;96.00
21612;DHT22;47005;52.292;13.452;2024-01-30T11:34:23;7.80;95.70
21612;DHT22;47005;52.292;13.452;2024-01-30T11:36:55;7.80;95.80
21612;DHT22;47005;52.292;13.452;2024-01-30T11:39:24;7.90;95.90
21612;DHT22;47005;52.292;13.452;2024-01-30T11:41:54;8.00;96.00
21612;DHT22;47005;52.292;13.452;2024-01-30T11:44:20;8.00;95.70
21612;DHT22;47005;52.292;13.452;2024-01-30T11:46:52;8.00;95.70
21612;DHT22;47005;52.292;13.452;2024-01-30T11:49:18;8.10;95.80
21612;DHT22;47005;52.292;13.452;2024-01-30T11:51:47;8.10;95.90
21612;DHT22;47005;52.292;13.452;2024-01-30T11:54:15;8.10;96.00
21612;DHT22;47005;52.292;13.452;2024-01-30T11:56:42;8.20;95.90
21612;DHT22;47005;52.292;13.452;2024-01-30T11:59:08;8.20;95.70
21612;DHT22;47005;52.292;13.452;2024-01-30T12:01:34;8.30;95.50
21612;DHT22;47005;52.292;13.452;2024-01-30T12:04:00;8.30;96.00
21612;DHT22;47005;52.292;13.452;2024-01-30T12:06:26;8.30;95.90
21612;DHT22;47005;52.292;13.452;2024-01-30T12:08:59;8.40;95.70
21612;DHT22;47005;52.292;13.452;2024-01-30T12:11:28;8.40;96.00
21612;DHT22;47005;52.292;13.452;2024-01-30T12:13:55;8.40;96.00
21612;DHT22;47005;52.292;13.452;2024-01-30T12:16:22;8.40;96.00
21612;DHT22;47005;52.292;13.452;2024-01-30T12:18:48;8.50;95.80
21612;DHT22;47005;52.292;13.452;2024-01-30T12:21:16;8.60;96.10
21612;DHT22;47005;52.292;13.452;2024-01-30T12:23:43;8.60;96.10
21612;DHT22;47005;52.292;13.452;2024-01-30T12:26:10;8.60;96.00
21612;DHT22;47005;52.292;13.452;2024-01-30T12:28:36;8.60;96.30
21612;DHT22;47005;52.292;13.452;2024-01-30T12:31:04;8.60;96.30
21612;DHT22;47005;52.292;13.452;2024-01-30T12:33:30;8.70;96.10
21612;DHT22;47005;52.292;13.452;2024-01-30T12:35:57;8.70;96.00
21612;DHT22;47005;52.292;13.452;2024-01-30T12:38:24;8.70;95.90
21612;DHT22;47005;52.292;13.452;2024-01-30T12:40:58;8.70;95.60
21612;DHT22;47005;52.292;13.452;2024-01-30T12:43:25;8.70;95.40
21612;DHT22;47005;52.292;13.452;2024-01-30T12:45:52;8.80;95.60
21612;DHT22;47005;52.292;13.452;2024-01-30T12:48:17;8.80;95.80
21612;DHT22;47005;52.292;13.452;2024-01-30T12:50:43;8.80;95.70
21612;DHT22;47005;52.292;13.452;2024-01-30T12:53:09;8.80;96.00
21612;DHT22;47005;52.292;13.452;2024-01-30T12:55:35;8.90;96.10
21612;DHT22;47005;52.292;13.452;2024-01-30T12:58:00;8.90;96.10
21612;DHT22;47005;52.292;13.452;2024-01-30T13:00:26;8.90;96.10
21612;DHT22;47005;52.292;13.452;2024-01-30T13:02:52;8.90;96.10
21612;DHT22;47005;52.292;13.452;2024-01-30T13:05:18;8.90;96.10
21612;DHT22;47005;52.292;13.452;2024-01-30T13:07:44;9.00;96.00
21612;DHT22;47005;52.292;13.452;2024-01-30T13:10:09;9.00;96.20
21612;DHT22;47005;52.292;13.452;2024-01-30T13:12:35;9.00;96.00
21612;DHT22;47005;52.292;13.452;2024-01-30T13:15:02;9.10;95.80
21612;DHT22;47005;52.292;13.452;2024-01-30T13:17:30;9.10;96.20
21612;DHT22;47005;52.292;13.452;2024-01-30T13:19:56;9.10;95.90
21612;DHT22;47005;52.292;13.452;2024-01-30T13:22:21;9.20;95.90
21612;DHT22;47005;52.292;13.452;2024-01-30T13:24:47;9.20;95.80
21612;DHT22;47005;52.292;13.452;2024-01-30T13:27:13;9.20;96.00
21612;DHT22;47005;52.292;13.452;2024-01-30T13:29:39;9.20;95.80
21612;DHT22;47005;52.292;13.452;2024-01-30T13:32:05;9.20;96.00
21612;DHT22;47005;52.292;13.452;2024-01-30T13:34:31;9.30;96.20
21612;DHT22;47005;52.292;13.452;2024-01-30T13:37:02;9.30;96.10
21612;DHT22;47005;52.292;13.452;2024-01-30T13:39:28;9.30;96.00
21612;DHT22;47005;52.292;13.452;2024-01-30T13:41:54;9.30;96.20
21612;DHT22;47005;52.292;13.452;2024-01-30T13:44:20;9.30;96.10
21612;DHT22;47005;52.292;13.452;2024-01-30T13:46:46;9.40;96.20
21612;DHT22;47005;52.292;13.452;2024-01-30T13:49:12;9.40;96.20
21612;DHT22;47005;52.292;13.452;2024-01-30T13:51:37;9.40;96.30
21612;DHT22;47005;52.292;13.452;2024-01-30T13:54:03;9.40;96.40
21612;DHT22;47005;52.292;13.452;2024-01-30T13:56:29;9.40;96.30
21612;DHT22;47005;52.292;13.452;2024-01-30T13:58:55;9.40;96.30
21612;DHT22;47005;52.292;13.452;2024-01-30T14:01:22;9.40;96.30
21612;DHT22;47005;52.292;13.452;2024-01-30T14:03:48;9.40;96.20
21612;DHT22;47005;52.292;13.452;2024-01-30T14:06:13;9.40;96.20
21612;DHT22;47005;52.292;13.452;2024-01-30T14:08:39;9.40;96.00
21612;DHT22;47005;52.292;13.452;2024-01-30T14:11:05;9.40;96.10
21612;DHT22;47005;52.292;13.452;2024-01-30T14:13:30;9.40;96.10
21612;DHT22;47005;52.292;13.452;2024-01-30T14:15:58;9.40;96.10
21612;DHT22;47005;52.292;13.452;2024-01-30T14:18:23;9.40;95.80
21612;DHT22;47005;52.292;13.452;2024-01-30T14:20:51;9.40;96.00
21612;DHT22;47005;52.292;13.452;2024-01-30T14:23:17;9.40;95.90
21612;DHT22;47005;52.292;13.452;2024-01-30T14:25:43;9.40;95.80
21612;DHT22;47005;52.292;13.452;2024-01-30T14:28:09;9.40;95.80
21612;DHT22;47005;52.292;13.452;2024-01-30T14:30:35;9.40;95.80
21612;DHT22;47005;52.292;13.452;2024-01-30T14:33:01;9.40;96.10
21612;DHT22;47005;52.292;13.452;2024-01-30T14:35:27;9.40;96.10
21612;DHT22;47005;52.292;13.452;2024-01-30T14:37:53;9.40;96.10
21612;DHT22;47005;52.292;13.452;2024-01-30T14:40:19;9.40;96.10
21612;DHT22;47005;52.292;13.452;2024-01-30T14:42:45;9.40;96.20
21612;DHT22;47005;52.292;13.452;2024-01-30T14:45:11;9.40;96.30
21612;DHT22;47005;52.292;13.452;2024-01-30T14:47:37;9.40;96.40
21612;DHT22;47005;52.292;13.452;2024-01-30T14:50:04;9.40;96.50
21612;DHT22;47005;52.292;13.452;2024-01-30T14:52:31;9.40;96.30
21612;DHT22;47005;52.292;13.452;2024-01-30T14:54:57;9.40;96.50
21612;DHT22;47005;52.292;13.452;2024-01-30T14:57:24;9.40;96.50
21612;DHT22;47005;52.292;13.452;2024-01-30T14:59:49;9.40;96.60
21612;DHT22;47005;52.292;13.452;2024-01-30T15:02:15;9.30;96.70
21612;DHT22;47005;52.292;13.452;2024-01-30T15:04:41;9.30;97.10
21612;DHT22;47005;52.292;13.452;2024-01-30T15:07:06;9.30;96.70
21612;DHT22;47005;52.292;13.452;2024-01-30T15:09:32;9.30;96.80
21612;DHT22;47005;52.292;13.452;2024-01-30T15:11:58;9.30;96.80
21612;DHT22;47005;52.292;13.452;2024-01-30T15:14:23;9.30;96.90
21612;DHT22;47005;52.292;13.452;2024-01-30T15:16:49;9.30;96.90
21612;DHT22;47005;52.292;13.452;2024-01-30T15:19:15;9.20;97.00
21612;DHT22;47005;52.292;13.452;2024-01-30T15:21:41;9.20;97.10
21612;DHT22;47005;52.292;13.452;2024-01-30T15:24:07;9.20;97.10
21612;DHT22;47005;52.292;13.452;2024-01-30T15:26:32;9.20;97.10